Darstellungsparameter: Aktuell verwendete Einstellungen:
Skalierung der Graphiken ... ?
xyx+y,   Skalierungsfaktor:      Skalierung: Modus: x, Faktor: 1
Darstellungszeitraum ... ?
Vom - - bis: - -   Zeitraum: 03.09.2020 - 16.09.2020
Min/Max/Avg-Anzeige ... ?
Zeige MMA aktuell
Zeige MMA Monat
Zeige MMA alles
Zeige --A aktuell
Zeige --A Monat
Zeige --A alles
Keine MMA-Anzeige
MMA:
Keine MMA-Graphiken
MMA-Basis: 03.09.2020 - 16.09.2020
Quicknavigation für Darstellung... ?
Tage:      1T, 2T, 3T, 5T -1T -2T -3T -5T +1T +2T +3T +5T
Wochen: 1W, 2W, 3W -1W -2W -3W +1W +2W +3W
Monate: 1M, 3M, 6M -1M -3M -6M +1M +3M +6M
Jahre:    1J, 3J, 5J, 10J -1J -3J -5J -10J +1J +3J +5J +10J
Nutze für die Darstellung ... ?
Originaldaten oder ...
Mittelwerte Minima Maxima auf...
Stundenbasis Tagesbasis Wochenbasis
Monatsbasis Jahresbasis      Datenbasis: Mittelwerte auf Stundenbasis
Darstellen als:
Statistik (Auto) Statistik J:M      Darstellung:
Zur Graphik,    zurück zur Übersicht aller Sensoren.
 
Tabellarische Datenbersicht: ?
 
Sensor: Nr:Datum:Temp:Abs-Feuchte:Windchill:Wind:
Aussen-T/F 1 03-09-2020 00:00:00 12.325 C 9.24 g/m*3 12.33 C 0 km/h
2 03-09-2020 01:00:00 11.38333 C 9 g/m*3 11.38 C 0 km/h
3 03-09-2020 02:00:00 10.55833 C 8.75 g/m*3 10.56 C 0 km/h
4 03-09-2020 03:00:00 10.275 C 8.76 g/m*3 10.28 C 0 km/h
5 03-09-2020 04:00:00 10.05833 C 8.73 g/m*3 10.06 C 0 km/h
6 03-09-2020 05:00:00 9.84167 C 8.69 g/m*3 9.84 C 0.26667 km/h
7 03-09-2020 06:00:00 10.14167 C 8.91 g/m*3 10.14 C 0.13333 km/h
8 03-09-2020 07:00:00 10.35833 C 9.04 g/m*3 10.36 C 0.13333 km/h
9 03-09-2020 08:00:00 11.25833 C 9.47 g/m*3 11.26 C 0.8 km/h
10 03-09-2020 09:00:00 12.76667 C 9.91 g/m*3 12.77 C 1.33333 km/h
11 03-09-2020 10:00:00 14.60833 C 10.5 g/m*3 14.61 C 0.53333 km/h
12 03-09-2020 11:00:00 17.63333 C 11.13 g/m*3 17.63 C 6.85833 km/h
13 03-09-2020 12:00:00 19.33333 C 11.12 g/m*3 19.33 C 8.475 km/h
14 03-09-2020 13:00:00 19.08333 C 11.57 g/m*3 19.08 C 7.39167 km/h
15 03-09-2020 14:00:00 17.73333 C 11.89 g/m*3 17.73 C 4.3 km/h
16 03-09-2020 15:00:00 17.99167 C 12.31 g/m*3 17.99 C 5.225 km/h
17 03-09-2020 16:00:00 16.2 C 12.32 g/m*3 16.2 C 3.475 km/h
18 03-09-2020 17:00:00 15.85833 C 12.52 g/m*3 15.86 C 1.2 km/h
19 03-09-2020 18:00:00 16.11667 C 12.82 g/m*3 16.12 C 1.33333 km/h
20 03-09-2020 19:00:00 15.95 C 12.75 g/m*3 15.95 C 2.53333 km/h
21 03-09-2020 20:00:00 15.5 C 12.43 g/m*3 15.5 C 1.73333 km/h
22 03-09-2020 21:00:00 15.28333 C 12.34 g/m*3 15.28 C 2 km/h
23 03-09-2020 22:00:00 15.63333 C 12.57 g/m*3 15.63 C 0.66667 km/h
24 03-09-2020 23:00:00 15.75833 C 12.62 g/m*3 15.76 C 0.13333 km/h
25 04-09-2020 00:00:00 15.825 C 12.67 g/m*3 15.83 C 0 km/h
Sensor: Nr:Datum:Temp:Abs-Feuchte:Windchill:Wind:
Aussen-T/F 26 04-09-2020 01:00:00 15.78333 C 12.64 g/m*3 15.78 C 0.4 km/h
27 04-09-2020 02:00:00 15.84167 C 12.54 g/m*3 15.84 C 1.06667 km/h
28 04-09-2020 03:00:00 16.46667 C 12.85 g/m*3 16.47 C 0.8 km/h
29 04-09-2020 04:00:00 16.7 C 12.81 g/m*3 16.7 C 0 km/h
30 04-09-2020 05:00:00 16.7 C 12.85 g/m*3 16.7 C 0 km/h
31 04-09-2020 06:00:00 16.58333 C 12.7 g/m*3 16.58 C 1.73333 km/h
32 04-09-2020 07:00:00 16.78333 C 12.7 g/m*3 16.78 C 0.8 km/h
33 04-09-2020 08:00:00 17.175 C 13 g/m*3 17.18 C 0.4 km/h
34 04-09-2020 09:00:00 18.35 C 13.41 g/m*3 18.35 C 1.2 km/h
35 04-09-2020 10:00:00 19.25833 C 13.68 g/m*3 19.26 C 0.13333 km/h
36 04-09-2020 11:00:00 20.375 C 13.81 g/m*3 20.38 C 1.86667 km/h
37 04-09-2020 12:00:00 22.45 C 14.06 g/m*3 22.45 C 10.49167 km/h
38 04-09-2020 13:00:00 24.5 C 14.62 g/m*3 24.5 C 14.23333 km/h
39 04-09-2020 14:00:00 25.675 C 14.66 g/m*3 25.68 C 10.20833 km/h
40 04-09-2020 15:00:00 25.71667 C 14.64 g/m*3 25.72 C 4.94167 km/h
41 04-09-2020 16:00:00 26.34167 C 14.62 g/m*3 26.34 C 2.93333 km/h
42 04-09-2020 17:00:00 28.15833 C 15.38 g/m*3 28.16 C 2.40833 km/h
43 04-09-2020 18:00:00 25.54167 C 15.78 g/m*3 25.54 C 7.80833 km/h
44 04-09-2020 19:00:00 23.40833 C 15.83 g/m*3 23.41 C 4.4 km/h
45 04-09-2020 20:00:00 21.325 C 15.4 g/m*3 21.33 C 1.475 km/h
46 04-09-2020 21:00:00 20.075 C 15.14 g/m*3 20.08 C 2.13333 km/h
47 04-09-2020 22:00:00 19.50833 C 14.64 g/m*3 19.51 C 0.53333 km/h
48 04-09-2020 23:00:00 18.725 C 14.47 g/m*3 18.73 C 0 km/h
49 05-09-2020 00:00:00 17.79167 C 13.8 g/m*3 17.79 C 2 km/h
50 05-09-2020 01:00:00 16.61667 C 13.06 g/m*3 16.62 C 0 km/h
Sensor: Nr:Datum:Temp:Abs-Feuchte:Windchill:Wind:
Aussen-T/F 51 05-09-2020 02:00:00 15.875 C 12.68 g/m*3 15.88 C 0 km/h
52 05-09-2020 03:00:00 16.04167 C 12.98 g/m*3 16.04 C 0 km/h
53 05-09-2020 04:00:00 16.50833 C 13.46 g/m*3 16.51 C 0.4 km/h
54 05-09-2020 05:00:00 16.7 C 13.58 g/m*3 16.7 C 0 km/h
55 05-09-2020 06:00:00 16.25833 C 12.62 g/m*3 16.26 C 6.04167 km/h
56 05-09-2020 07:00:00 15.81667 C 11.42 g/m*3 15.82 C 4.00833 km/h
57 05-09-2020 08:00:00 15.50833 C 11.31 g/m*3 15.51 C 2.26667 km/h
58 05-09-2020 09:00:00 15.875 C 11.35 g/m*3 15.88 C 3.475 km/h
59 05-09-2020 10:00:00 16.64167 C 11.42 g/m*3 16.64 C 6.84167 km/h
60 05-09-2020 11:00:00 17.79167 C 11.57 g/m*3 17.79 C 7.93333 km/h
61 05-09-2020 12:00:00 18.36667 C 11.37 g/m*3 18.37 C 11.15 km/h
62 05-09-2020 13:00:00 18.64167 C 11.31 g/m*3 18.64 C 11.025 km/h
63 05-09-2020 14:00:00 18.825 C 11.17 g/m*3 18.83 C 12.89167 km/h
64 05-09-2020 15:00:00 17.76667 C 11.07 g/m*3 17.77 C 11.3 km/h
65 05-09-2020 16:00:00 18.68333 C 10.68 g/m*3 18.68 C 9.69167 km/h
66 05-09-2020 17:00:00 19.44167 C 10.05 g/m*3 19.44 C 9.425 km/h
67 05-09-2020 18:00:00 20.2 C 9.08 g/m*3 20.2 C 7.91667 km/h
68 05-09-2020 19:00:00 18.6 C 9.23 g/m*3 18.6 C 1.74167 km/h
69 05-09-2020 20:00:00 16.40833 C 9.19 g/m*3 16.41 C 3.60833 km/h
70 05-09-2020 21:00:00 14.35833 C 9.35 g/m*3 14.36 C 3.06667 km/h
71 05-09-2020 22:00:00 13.725 C 9.27 g/m*3 13.73 C 3.6 km/h
72 05-09-2020 23:00:00 13.08333 C 9.22 g/m*3 13.08 C 4.53333 km/h
73 06-09-2020 00:00:00 12.55 C 9.19 g/m*3 12.55 C 2.8 km/h
74 06-09-2020 01:00:00 11.725 C 9.08 g/m*3 11.73 C 0 km/h
75 06-09-2020 02:00:00 10.51667 C 8.62 g/m*3 10.52 C 0.13333 km/h
Sensor: Nr:Datum:Temp:Abs-Feuchte:Windchill:Wind:
Aussen-T/F 76 06-09-2020 03:00:00 9.65 C 8.34 g/m*3 9.65 C 0.26667 km/h
77 06-09-2020 04:00:00 9.06667 C 8.17 g/m*3 9.07 C 0.13333 km/h
78 06-09-2020 05:00:00 8.60833 C 8.03 g/m*3 8.61 C 0.4 km/h
79 06-09-2020 06:00:00 8.175 C 7.85 g/m*3 8.18 C 0 km/h
80 06-09-2020 07:00:00 8.03333 C 7.85 g/m*3 8.03 C 0.13333 km/h
81 06-09-2020 08:00:00 8.125 C 7.92 g/m*3 8.13 C 0.53333 km/h
82 06-09-2020 09:00:00 8.96667 C 8.42 g/m*3 8.97 C 1.33333 km/h
83 06-09-2020 10:00:00 10.61667 C 9.31 g/m*3 10.62 C 0.4 km/h
84 06-09-2020 11:00:00 13.84167 C 9.64 g/m*3 13.84 C 0.53333 km/h
85 06-09-2020 12:00:00 16.43333 C 9.18 g/m*3 16.43 C 4.825 km/h
86 06-09-2020 13:00:00 17.45 C 8.83 g/m*3 17.45 C 4.03333 km/h
87 06-09-2020 14:00:00 18.61667 C 8.8 g/m*3 18.62 C 4.55 km/h
88 06-09-2020 15:00:00 19.04167 C 8.6 g/m*3 19.04 C 6.30833 km/h
89 06-09-2020 16:00:00 18.5 C 8.43 g/m*3 18.5 C 5.50833 km/h
90 06-09-2020 17:00:00 18.56667 C 8.68 g/m*3 18.57 C 7.53333 km/h
91 06-09-2020 18:00:00 19.11667 C 8.76 g/m*3 19.12 C 3.34167 km/h
92 06-09-2020 19:00:00 18.65 C 8.87 g/m*3 18.65 C 2.4 km/h
93 06-09-2020 20:00:00 14.71667 C 8.58 g/m*3 14.72 C 0 km/h
94 06-09-2020 21:00:00 12.83333 C 8.62 g/m*3 12.83 C 0 km/h
95 06-09-2020 22:00:00 12.35 C 8.89 g/m*3 12.35 C 0 km/h
96 06-09-2020 23:00:00 12.575 C 9.02 g/m*3 12.58 C 0.26667 km/h
97 07-09-2020 00:00:00 12.59167 C 9.03 g/m*3 12.59 C 0.13333 km/h
98 07-09-2020 01:00:00 12.19167 C 8.95 g/m*3 12.19 C 0 km/h
99 07-09-2020 02:00:00 10.725 C 8.44 g/m*3 10.73 C 0.13333 km/h
100 07-09-2020 03:00:00 9.475 C 8.1 g/m*3 9.48 C 0.13333 km/h
Sensor: Nr:Datum:Temp:Abs-Feuchte:Windchill:Wind:
Aussen-T/F 101 07-09-2020 04:00:00 8.80833 C 7.93 g/m*3 8.81 C 0.13333 km/h
102 07-09-2020 05:00:00 8.24167 C 7.76 g/m*3 8.24 C 0.4 km/h
103 07-09-2020 06:00:00 7.81667 C 7.62 g/m*3 7.82 C 0.53333 km/h
104 07-09-2020 07:00:00 7.6 C 7.57 g/m*3 7.6 C 0 km/h
105 07-09-2020 08:00:00 7.98333 C 7.85 g/m*3 7.98 C 0.26667 km/h
106 07-09-2020 09:00:00 8.95833 C 8.39 g/m*3 8.96 C 0.4 km/h
107 07-09-2020 10:00:00 10.56667 C 9.29 g/m*3 10.57 C 0.93333 km/h
108 07-09-2020 11:00:00 13.66667 C 10.23 g/m*3 13.67 C 1.73333 km/h
109 07-09-2020 12:00:00 16.475 C 10 g/m*3 16.48 C 3.34167 km/h
110 07-09-2020 13:00:00 18.13333 C 9.44 g/m*3 18.13 C 3.875 km/h
111 07-09-2020 14:00:00 19.43333 C 8.85 g/m*3 19.43 C 6.71667 km/h
112 07-09-2020 15:00:00 20.7 C 8.84 g/m*3 20.7 C 5.475 km/h
113 07-09-2020 16:00:00 21.69167 C 8.87 g/m*3 21.69 C 5.35 km/h
114 07-09-2020 17:00:00 22.85 C 9.02 g/m*3 22.85 C 3.74167 km/h
115 07-09-2020 18:00:00 22.425 C 10.01 g/m*3 22.43 C 0.66667 km/h
116 07-09-2020 19:00:00 20.85 C 10.05 g/m*3 20.85 C 2.53333 km/h
117 07-09-2020 20:00:00 16.58333 C 9.18 g/m*3 16.58 C 3.73333 km/h
118 07-09-2020 21:00:00 14.21667 C 9.18 g/m*3 14.22 C 0.53333 km/h
119 07-09-2020 22:00:00 12.7 C 8.95 g/m*3 12.7 C 0 km/h
120 07-09-2020 23:00:00 11.675 C 8.68 g/m*3 11.68 C 0 km/h
121 08-09-2020 00:00:00 10.875 C 8.49 g/m*3 10.88 C 0 km/h
122 08-09-2020 01:00:00 10.425 C 8.43 g/m*3 10.43 C 0.13333 km/h
123 08-09-2020 02:00:00 9.775 C 8.24 g/m*3 9.78 C 0 km/h
124 08-09-2020 03:00:00 9.25 C 8.1 g/m*3 9.25 C 0 km/h
125 08-09-2020 04:00:00 8.725 C 7.93 g/m*3 8.73 C 0 km/h
Sensor: Nr:Datum:Temp:Abs-Feuchte:Windchill:Wind:
Aussen-T/F 126 08-09-2020 05:00:00 8.41667 C 7.86 g/m*3 8.42 C 0 km/h
127 08-09-2020 06:00:00 8.05833 C 7.72 g/m*3 8.06 C 0 km/h
128 08-09-2020 07:00:00 8.125 C 7.83 g/m*3 8.13 C 0 km/h
129 08-09-2020 08:00:00 8.76667 C 8.17 g/m*3 8.77 C 0 km/h
130 08-09-2020 09:00:00 9.725 C 8.68 g/m*3 9.73 C 0.8 km/h
131 08-09-2020 10:00:00 12.20833 C 9.76 g/m*3 12.21 C 2.53333 km/h
132 08-09-2020 11:00:00 17.40833 C 10.33 g/m*3 17.41 C 6.99167 km/h
133 08-09-2020 12:00:00 20.70833 C 10.33 g/m*3 20.71 C 10.89167 km/h
134 08-09-2020 13:00:00 22.10833 C 10.22 g/m*3 22.11 C 10.48333 km/h
135 08-09-2020 14:00:00 23.06667 C 10.26 g/m*3 23.07 C 9.55833 km/h
136 08-09-2020 15:00:00 24.23333 C 10.27 g/m*3 24.23 C 10.74167 km/h
137 08-09-2020 16:00:00 25.63333 C 10.38 g/m*3 25.63 C 9.14167 km/h
138 08-09-2020 17:00:00 27.58333 C 10.63 g/m*3 27.58 C 9 km/h
139 08-09-2020 18:00:00 27.83333 C 11.18 g/m*3 27.83 C 6.43333 km/h
140 08-09-2020 19:00:00 25.13333 C 12.47 g/m*3 25.13 C 4.95 km/h
141 08-09-2020 20:00:00 20.625 C 12.44 g/m*3 20.63 C 1.46667 km/h
142 08-09-2020 21:00:00 18.66667 C 12.26 g/m*3 18.67 C 2.26667 km/h
143 08-09-2020 22:00:00 17.56667 C 12.04 g/m*3 17.57 C 2.66667 km/h
144 08-09-2020 23:00:00 16.24167 C 11.73 g/m*3 16.24 C 0 km/h
145 09-09-2020 00:00:00 15.15833 C 11.41 g/m*3 15.16 C 0 km/h
146 09-09-2020 01:00:00 14.46667 C 11.23 g/m*3 14.47 C 0 km/h
147 09-09-2020 02:00:00 13.90833 C 10.98 g/m*3 13.91 C 0 km/h
148 09-09-2020 03:00:00 13.35 C 10.76 g/m*3 13.35 C 0 km/h
149 09-09-2020 04:00:00 12.86667 C 10.49 g/m*3 12.87 C 0 km/h
150 09-09-2020 05:00:00 12.46667 C 10.32 g/m*3 12.47 C 0 km/h
Sensor: Nr:Datum:Temp:Abs-Feuchte:Windchill:Wind:
Aussen-T/F 151 09-09-2020 06:00:00 12.18333 C 10.2 g/m*3 12.18 C 0 km/h
152 09-09-2020 07:00:00 12.01667 C 10.14 g/m*3 12.02 C 0.13333 km/h
153 09-09-2020 08:00:00 12.41667 C 10.47 g/m*3 12.42 C 1.2 km/h
154 09-09-2020 09:00:00 13.48333 C 11.25 g/m*3 13.48 C 1.6 km/h
155 09-09-2020 10:00:00 16.26667 C 12.88 g/m*3 16.27 C 0.13333 km/h
156 09-09-2020 11:00:00 20.69167 C 13.52 g/m*3 20.69 C 0.53333 km/h
157 09-09-2020 12:00:00 22.36667 C 13.68 g/m*3 22.37 C 3.74167 km/h
158 09-09-2020 13:00:00 22.85 C 13.87 g/m*3 22.85 C 5.225 km/h
159 09-09-2020 14:00:00 23.69167 C 13.99 g/m*3 23.69 C 7.66667 km/h
160 09-09-2020 15:00:00 24.1 C 14.19 g/m*3 24.1 C 7.38333 km/h
161 09-09-2020 16:00:00 23.925 C 14.06 g/m*3 23.93 C 4.55 km/h
162 09-09-2020 17:00:00 24.525 C 14.16 g/m*3 24.53 C 4.54167 km/h
163 09-09-2020 18:00:00 24.46667 C 14.72 g/m*3 24.47 C 1.20833 km/h
164 09-09-2020 19:00:00 22.70833 C 14.54 g/m*3 22.71 C 0 km/h
165 09-09-2020 20:00:00 21.025 C 14.08 g/m*3 21.03 C 0.13333 km/h
166 09-09-2020 21:00:00 19.75 C 13.58 g/m*3 19.75 C 4.8 km/h
167 09-09-2020 22:00:00 19.65833 C 13.75 g/m*3 19.66 C 1.2 km/h
168 09-09-2020 23:00:00 20.05833 C 13.73 g/m*3 20.06 C 4.00833 km/h
169 10-09-2020 00:00:00 20.18333 C 14.59 g/m*3 20.18 C 10.89167 km/h
170 10-09-2020 01:00:00 18.69167 C 14.51 g/m*3 18.69 C 8.6 km/h
171 10-09-2020 02:00:00 17.675 C 13.63 g/m*3 17.68 C 4.55833 km/h
172 10-09-2020 03:00:00 17.175 C 13.05 g/m*3 17.18 C 2.00833 km/h
173 10-09-2020 04:00:00 16.85833 C 12.55 g/m*3 16.86 C 1.06667 km/h
174 10-09-2020 05:00:00 16.56667 C 11.82 g/m*3 16.57 C 2.13333 km/h
175 10-09-2020 06:00:00 16.08333 C 11.56 g/m*3 16.08 C 3.075 km/h
Sensor: Nr:Datum:Temp:Abs-Feuchte:Windchill:Wind:
Aussen-T/F 176 10-09-2020 07:00:00 15.475 C 11.38 g/m*3 15.48 C 5.1 km/h
177 10-09-2020 08:00:00 15.35833 C 11.29 g/m*3 15.36 C 2.4 km/h
178 10-09-2020 09:00:00 15.56667 C 11.39 g/m*3 15.57 C 3.875 km/h
179 10-09-2020 10:00:00 15.93333 C 10.87 g/m*3 15.93 C 6.71667 km/h
180 10-09-2020 11:00:00 16.7 C 10.67 g/m*3 16.7 C 5.36667 km/h
181 10-09-2020 12:00:00 17.83333 C 10.28 g/m*3 17.83 C 7.24167 km/h
182 10-09-2020 13:00:00 18.54167 C 9.52 g/m*3 18.54 C 5.9 km/h
183 10-09-2020 14:00:00 19.66667 C 9.96 g/m*3 19.67 C 5.5 km/h
184 10-09-2020 15:00:00 20.84167 C 10.16 g/m*3 20.84 C 7.11667 km/h
185 10-09-2020 16:00:00 22.06667 C 10.31 g/m*3 22.07 C 7.65833 km/h
186 10-09-2020 17:00:00 22.73333 C 10.27 g/m*3 22.73 C 8.61667 km/h
187 10-09-2020 18:00:00 22.45 C 10.24 g/m*3 22.45 C 5.225 km/h
188 10-09-2020 19:00:00 20.80833 C 9.8 g/m*3 20.81 C 2 km/h
189 10-09-2020 20:00:00 17.675 C 9.25 g/m*3 17.68 C 1.33333 km/h
190 10-09-2020 21:00:00 15.60833 C 8.98 g/m*3 15.61 C 3.2 km/h
191 10-09-2020 22:00:00 14.325 C 9.01 g/m*3 14.33 C 0.4 km/h
192 10-09-2020 23:00:00 12.7 C 8.75 g/m*3 12.7 C 0 km/h
193 11-09-2020 00:00:00 12.08333 C 8.78 g/m*3 12.08 C 0 km/h
194 11-09-2020 01:00:00 11.95 C 8.78 g/m*3 11.95 C 0 km/h
195 11-09-2020 02:00:00 11.05833 C 8.52 g/m*3 11.06 C 0 km/h
196 11-09-2020 03:00:00 10.23333 C 8.35 g/m*3 10.23 C 0 km/h
197 11-09-2020 04:00:00 9.59167 C 8.23 g/m*3 9.59 C 0 km/h
198 11-09-2020 05:00:00 8.95833 C 8.03 g/m*3 8.96 C 0 km/h
199 11-09-2020 06:00:00 8.43333 C 7.87 g/m*3 8.43 C 0 km/h
200 11-09-2020 07:00:00 8.26667 C 7.88 g/m*3 8.27 C 0 km/h
Sensor: Nr:Datum:Temp:Abs-Feuchte:Windchill:Wind:
Aussen-T/F 201 11-09-2020 08:00:00 8.625 C 8.13 g/m*3 8.63 C 0 km/h
202 11-09-2020 09:00:00 9.45833 C 8.62 g/m*3 9.46 C 0 km/h
203 11-09-2020 10:00:00 11.20833 C 9.55 g/m*3 11.21 C 0 km/h
204 11-09-2020 11:00:00 14.025 C 10.22 g/m*3 14.03 C 0.26667 km/h
205 11-09-2020 12:00:00 17.6 C 9.97 g/m*3 17.6 C 2.93333 km/h
206 11-09-2020 13:00:00 19.86667 C 9.7 g/m*3 19.87 C 5.35833 km/h
207 11-09-2020 14:00:00 21.15 C 10.06 g/m*3 21.15 C 5.09167 km/h
208 11-09-2020 15:00:00 22.44167 C 10.4 g/m*3 22.44 C 6.45833 km/h
209 11-09-2020 16:00:00 23.58333 C 10.59 g/m*3 23.58 C 8.6 km/h
210 11-09-2020 17:00:00 24.6 C 10.8 g/m*3 24.6 C 6.43333 km/h
211 11-09-2020 18:00:00 24.36667 C 11.27 g/m*3 24.37 C 3.075 km/h
212 11-09-2020 19:00:00 21.425 C 11.31 g/m*3 21.43 C 2.80833 km/h
213 11-09-2020 20:00:00 18.3 C 10.65 g/m*3 18.3 C 4.13333 km/h
214 11-09-2020 21:00:00 16.35833 C 10.47 g/m*3 16.36 C 0.53333 km/h
215 11-09-2020 22:00:00 15.04167 C 10.27 g/m*3 15.04 C 0 km/h
216 11-09-2020 23:00:00 13.93333 C 10.07 g/m*3 13.93 C 0 km/h
217 12-09-2020 00:00:00 13.05 C 9.85 g/m*3 13.05 C 0 km/h
218 12-09-2020 01:00:00 12.525 C 9.71 g/m*3 12.53 C 0 km/h
219 12-09-2020 02:00:00 11.975 C 9.53 g/m*3 11.98 C 0 km/h
220 12-09-2020 03:00:00 11.475 C 9.35 g/m*3 11.48 C 0 km/h
221 12-09-2020 04:00:00 10.975 C 9.17 g/m*3 10.98 C 0 km/h
222 12-09-2020 05:00:00 10.525 C 9.03 g/m*3 10.53 C 0 km/h
223 12-09-2020 06:00:00 10.225 C 8.9 g/m*3 10.23 C 0 km/h
224 12-09-2020 07:00:00 10.16667 C 8.94 g/m*3 10.17 C 0 km/h
225 12-09-2020 08:00:00 10.9 C 9.46 g/m*3 10.9 C 0 km/h
Sensor: Nr:Datum:Temp:Abs-Feuchte:Windchill:Wind:
Aussen-T/F 226 12-09-2020 09:00:00 12.625 C 10.36 g/m*3 12.63 C 0.26667 km/h
227 12-09-2020 10:00:00 14.675 C 10.94 g/m*3 14.68 C 0.13333 km/h
228 12-09-2020 11:00:00 17.25 C 11.71 g/m*3 17.25 C 0 km/h
229 12-09-2020 12:00:00 20.15833 C 12.27 g/m*3 20.16 C 2.80833 km/h
230 12-09-2020 13:00:00 24.425 C 11.76 g/m*3 24.43 C 11.15833 km/h
231 12-09-2020 14:00:00 24.90833 C 12.29 g/m*3 24.91 C 6.85 km/h
232 12-09-2020 15:00:00 25.61667 C 12.43 g/m*3 25.62 C 8.6 km/h
233 12-09-2020 16:00:00 25.75 C 12.36 g/m*3 25.75 C 10.475 km/h
234 12-09-2020 17:00:00 26.14167 C 12.76 g/m*3 26.14 C 10.76667 km/h
235 12-09-2020 18:00:00 25.28333 C 12.84 g/m*3 25.28 C 7.23333 km/h
236 12-09-2020 19:00:00 23.03333 C 12.66 g/m*3 23.03 C 1.46667 km/h
237 12-09-2020 20:00:00 19.79167 C 11.85 g/m*3 19.79 C 1.6 km/h
238 12-09-2020 21:00:00 18.49167 C 10.94 g/m*3 18.49 C 1.20833 km/h
239 12-09-2020 22:00:00 17.16667 C 10.49 g/m*3 17.17 C 0.66667 km/h
240 12-09-2020 23:00:00 15.81667 C 10.29 g/m*3 15.82 C 1.06667 km/h
241 13-09-2020 00:00:00 14.36667 C 9.98 g/m*3 14.37 C 0.26667 km/h
242 13-09-2020 01:00:00 13.05 C 9.73 g/m*3 13.05 C 0.13333 km/h
243 13-09-2020 02:00:00 12.375 C 9.55 g/m*3 12.38 C 0.26667 km/h
244 13-09-2020 03:00:00 11.73333 C 9.42 g/m*3 11.73 C 0 km/h
245 13-09-2020 04:00:00 11.35 C 9.32 g/m*3 11.35 C 0 km/h
246 13-09-2020 05:00:00 10.84167 C 9.12 g/m*3 10.84 C 0 km/h
247 13-09-2020 06:00:00 10.35 C 8.92 g/m*3 10.35 C 0 km/h
248 13-09-2020 07:00:00 10.15 C 8.91 g/m*3 10.15 C 0 km/h
249 13-09-2020 08:00:00 10.66667 C 9.31 g/m*3 10.67 C 0.26667 km/h
250 13-09-2020 09:00:00 11.60833 C 9.88 g/m*3 11.61 C 0 km/h
Sensor: Nr:Datum:Temp:Abs-Feuchte:Windchill:Wind:
Aussen-T/F 251 13-09-2020 10:00:00 13.1 C 10.67 g/m*3 13.1 C 0 km/h
252 13-09-2020 11:00:00 15.53333 C 11.27 g/m*3 15.53 C 0.4 km/h
253 13-09-2020 12:00:00 19.05833 C 11.98 g/m*3 19.06 C 2.26667 km/h
254 13-09-2020 13:00:00 21.825 C 11.99 g/m*3 21.83 C 0.53333 km/h
255 13-09-2020 14:00:00 23.725 C 11.78 g/m*3 23.73 C 2.81667 km/h
256 13-09-2020 15:00:00 25.85833 C 11.17 g/m*3 25.86 C 4.14167 km/h
257 13-09-2020 16:00:00 26.83333 C 11.13 g/m*3 26.83 C 5.1 km/h
258 13-09-2020 17:00:00 28.81667 C 11.8 g/m*3 28.82 C 3.86667 km/h
259 13-09-2020 18:00:00 27.46667 C 13.01 g/m*3 27.47 C 2.66667 km/h
260 13-09-2020 19:00:00 23.69167 C 11.87 g/m*3 23.69 C 3.2 km/h
261 13-09-2020 20:00:00 20.53333 C 11.32 g/m*3 20.53 C 1.86667 km/h
262 13-09-2020 21:00:00 18.25 C 10.95 g/m*3 18.25 C 0 km/h
263 13-09-2020 22:00:00 16.55833 C 10.63 g/m*3 16.56 C 0 km/h
264 13-09-2020 23:00:00 15.175 C 10.44 g/m*3 15.18 C 0 km/h
265 14-09-2020 00:00:00 14.325 C 10.28 g/m*3 14.33 C 0 km/h
266 14-09-2020 01:00:00 13.59167 C 10.02 g/m*3 13.59 C 0 km/h
267 14-09-2020 02:00:00 12.875 C 9.83 g/m*3 12.88 C 0 km/h
268 14-09-2020 03:00:00 12.33333 C 9.69 g/m*3 12.33 C 0 km/h
269 14-09-2020 04:00:00 11.64167 C 9.45 g/m*3 11.64 C 0 km/h
270 14-09-2020 05:00:00 11.25833 C 9.33 g/m*3 11.26 C 0 km/h
271 14-09-2020 06:00:00 10.83333 C 9.15 g/m*3 10.83 C 0 km/h
272 14-09-2020 07:00:00 10.725 C 9.19 g/m*3 10.73 C 0 km/h
273 14-09-2020 08:00:00 11.15833 C 9.54 g/m*3 11.16 C 0 km/h
274 14-09-2020 09:00:00 12.125 C 10.2 g/m*3 12.13 C 0 km/h
275 14-09-2020 10:00:00 13.875 C 11.28 g/m*3 13.88 C 0 km/h
Sensor: Nr:Datum:Temp:Abs-Feuchte:Windchill:Wind:
Aussen-T/F 276 14-09-2020 11:00:00 17.325 C 12.59 g/m*3 17.33 C 0 km/h
277 14-09-2020 12:00:00 21.75833 C 13.7 g/m*3 21.76 C 1.075 km/h
278 14-09-2020 13:00:00 25.95833 C 13.95 g/m*3 25.96 C 3.33333 km/h
279 14-09-2020 14:00:00 28.11667 C 13.34 g/m*3 28.12 C 4.01667 km/h
280 14-09-2020 15:00:00 29.625 C 11.66 g/m*3 29.63 C 7.11667 km/h
281 14-09-2020 16:00:00 29.875 C 12.2 g/m*3 29.88 C 4.675 km/h
282 14-09-2020 17:00:00 29.775 C 14.18 g/m*3 29.78 C 1.46667 km/h
283 14-09-2020 18:00:00 30.61667 C 13.35 g/m*3 30.62 C 3.06667 km/h
284 14-09-2020 19:00:00 25.86667 C 11.8 g/m*3 25.87 C 7.39167 km/h
285 14-09-2020 20:00:00 22.39167 C 11.7 g/m*3 22.39 C 2.54167 km/h
286 14-09-2020 21:00:00 19.975 C 12.17 g/m*3 19.98 C 0 km/h
287 14-09-2020 22:00:00 18.525 C 11.98 g/m*3 18.52 C 0 km/h
288 14-09-2020 23:00:00 17.08333 C 11.72 g/m*3 17.08 C 0 km/h
289 15-09-2020 00:00:00 16.23333 C 11.47 g/m*3 16.23 C 0 km/h
290 15-09-2020 01:00:00 15.45833 C 11.28 g/m*3 15.46 C 0 km/h
291 15-09-2020 02:00:00 14.9 C 11.08 g/m*3 14.9 C 0 km/h
292 15-09-2020 03:00:00 14.15833 C 10.84 g/m*3 14.16 C 0 km/h
293 15-09-2020 04:00:00 13.54167 C 10.59 g/m*3 13.54 C 0 km/h
294 15-09-2020 05:00:00 13.10833 C 10.5 g/m*3 13.11 C 0 km/h
295 15-09-2020 06:00:00 12.50833 C 10.19 g/m*3 12.51 C 0 km/h
296 15-09-2020 07:00:00 12.2 C 10.11 g/m*3 12.2 C 0 km/h
297 15-09-2020 08:00:00 12.53333 C 10.43 g/m*3 12.53 C 0 km/h
298 15-09-2020 09:00:00 13.69167 C 11.29 g/m*3 13.69 C 0 km/h
299 15-09-2020 10:00:00 15.39167 C 12.46 g/m*3 15.39 C 0 km/h
300 15-09-2020 11:00:00 18.00833 C 13.23 g/m*3 18.01 C 0 km/h
Sensor: Nr:Datum:Temp:Abs-Feuchte:Windchill:Wind:
Aussen-T/F 301 15-09-2020 12:00:00 21.76667 C 14.25 g/m*3 21.77 C 0 km/h
302 15-09-2020 13:00:00 25.79167 C 13.96 g/m*3 25.79 C 1.6 km/h
303 15-09-2020 14:00:00 29.24167 C 12.37 g/m*3 29.24 C 4.13333 km/h
304 15-09-2020 15:00:00 30.65833 C 10.87 g/m*3 30.66 C 5.225 km/h
305 15-09-2020 16:00:00 31.5 C 9.92 g/m*3 31.5 C 4.93333 km/h
306 15-09-2020 17:00:00 33.19167 C 10.43 g/m*3 33.19 C 4.53333 km/h
307 15-09-2020 18:00:00 31.875 C 12.58 g/m*3 31.88 C 3.73333 km/h
308 15-09-2020 19:00:00 27.65833 C 11.92 g/m*3 27.66 C 3.33333 km/h
309 15-09-2020 20:00:00 24.3 C 11.82 g/m*3 24.3 C 4.4 km/h
310 15-09-2020 21:00:00 22.05833 C 12.2 g/m*3 22.06 C 0.13333 km/h
311 15-09-2020 22:00:00 20.48333 C 12.41 g/m*3 20.48 C 0 km/h
312 15-09-2020 23:00:00 18.90833 C 12.33 g/m*3 18.91 C 0 km/h
313 16-09-2020 00:00:00 18.13333 C 12.04 g/m*3 18.13 C 0 km/h
314 16-09-2020 01:00:00 17.29167 C 11.8 g/m*3 17.29 C 0 km/h
315 16-09-2020 02:00:00 16.225 C 11.64 g/m*3 16.23 C 0 km/h
316 16-09-2020 03:00:00 15.49167 C 11.43 g/m*3 15.49 C 0 km/h
317 16-09-2020 04:00:00 14.95 C 11.31 g/m*3 14.95 C 0 km/h
318 16-09-2020 05:00:00 14.5 C 11.19 g/m*3 14.5 C 0.4 km/h
319 16-09-2020 06:00:00 14.25833 C 11.14 g/m*3 14.26 C 0 km/h
320 16-09-2020 07:00:00 14.1 C 11.15 g/m*3 14.1 C 0.26667 km/h
321 16-09-2020 08:00:00 14.51667 C 11.45 g/m*3 14.52 C 0 km/h
322 16-09-2020 09:00:00 15.54167 C 12.13 g/m*3 15.54 C 0 km/h
323 16-09-2020 10:00:00 18.19167 C 13.13 g/m*3 18.19 C 0.26667 km/h
324 16-09-2020 11:00:00 20.775 C 13.49 g/m*3 20.78 C 0.13333 km/h
325 16-09-2020 12:00:00 23.24167 C 14 g/m*3 23.24 C 0 km/h
Sensor: Nr:Datum:Temp:Abs-Feuchte:Windchill:Wind:
Aussen-T/F 326 16-09-2020 13:00:00 24.46667 C 14.33 g/m*3 24.47 C 0.13333 km/h
327 16-09-2020 14:00:00 26.5 C 14.56 g/m*3 26.5 C 1.6 km/h
328 16-09-2020 15:00:00 28.38333 C 14.58 g/m*3 28.38 C 1.46667 km/h
329 16-09-2020 16:00:00 30.15 C 12.08 g/m*3 30.15 C 12.35833 km/h
330 16-09-2020 17:00:00 28.55833 C 14.56 g/m*3 28.56 C 13.96667 km/h
331 16-09-2020 18:00:00 26.775 C 15.19 g/m*3 26.78 C 13.56667 km/h
332 16-09-2020 19:00:00 25.28333 C 15.03 g/m*3 25.28 C 5.63333 km/h
333 16-09-2020 20:00:00 22.91667 C 14.49 g/m*3 22.92 C 2.53333 km/h
334 16-09-2020 21:00:00 22.29167 C 14.31 g/m*3 22.29 C 4.69167 km/h
335 16-09-2020 22:00:00 22.30833 C 14.01 g/m*3 22.31 C 7.66667 km/h
336 16-09-2020 23:00:00 21.24167 C 13.41 g/m*3 21.24 C 3.75 km/h

Maximal/Minimal-Werte vom 03.09.2020 - 16.09.2020

Sensor Min Max Avg
Temp
(Aussen-T/F)
7.5 °C
07-09-2020  07:20:00
33.7 °C
15-09-2020  17:35:00
17.18 °C
Abs-Feuchte
(Aussen-T/F)
7.57 g/m*3
07-09-2020  07:00:00
15.83 g/m*3
04-09-2020  19:00:00
10.96 g/m*3
Windchill
(Aussen-T/F)
7.6 C
07-09-2020  07:00:00
33.19 C
15-09-2020  17:00:00
17.13 C

Die Daten stammen von einer Davis Vantage Pro 2 Wetter-Station und werden unter Linux mit der Software wview2wettercgi und aufbereitet. Alle Angaben erfolgen ohne Gewähr für ihre Vollständigkeit oder Richtigkeit.
Kontakt: Rainer Krienke krienke@uni-koblenz.de . Meine Webseiten an der Uni Koblenz oder privat.
Version: $Revision: 0.78 $